Terminal Aerodrome Forecast
Issued by NWS

Home | Current Version | Previous Version | Text Only | Print | Product List | Glossary On
Versions: 1 2 3 4 5 6 7 8 9 10 11 12 13 14 15 16 17 18 19 20 21 22 23 24 25 26
000
FTUS43 KDLH 272339
TAFHYR
TAF
KHYR 272339Z 2800/2824 33005KT P6SM VCSH SCT010 OVC016
      TEMPO 2800/2801 3SM -RA BR
     FM280300 35007KT 4SM BR VCSH OVC007
     FM281400 02007KT P6SM OVC007
     FM281700 02010KT P6SM OVC023
     FM282100 02009KT P6SM SCT023=

USA.gov is the U.S. government's official web portal to all federal, state and local government web resources and services.